Time;durP1;ratioP1;P1;durP2;ratioP2;P2;SDS_P1;SDS_P2;PMS_P1;PMS_P2;Temp;Humidity;BMP_temperature;BMP_pressure;BME280_temperature;BME280_humidity;BME280_pressure;Samples;Min_cycle;Max_cycle;Signal;HPM_P1;HPM_P2
2022/01/17 00:00:54;;;;;;;;;;;4.50;93.90;;;;;;5070749;28;19916;-60
2022/01/17 00:03:24;;;;;;;;;;;4.50;93.80;;;;;;5081495;28;19966;-60
2022/01/17 00:05:52;;;;;;;;;;;4.40;93.80;;;;;;5089315;28;19916;-60
2022/01/17 00:08:18;;;;;;;;;;;4.50;93.80;;;;;;5095432;28;19908;-60
2022/01/17 00:10:43;;;;;;;;;;;4.50;93.90;;;;;;5085274;28;20337;-59
2022/01/17 00:13:13;;;;;;;;;;;4.50;93.90;;;;;;5062270;28;19908;-60
2022/01/17 00:15:48;;;;;;;;;;;4.50;93.80;;;;;;5084633;28;19908;-60
2022/01/17 00:20:40;;;;;;;;;;;4.50;93.80;;;;;;5092808;28;19926;-60
2022/01/17 00:23:05;;;;;;;;;;;4.50;93.80;;;;;;5081952;28;19916;-60
2022/01/17 00:25:31;;;;;;;;;;;4.50;93.80;;;;;;5090297;28;19980;-60
2022/01/17 00:27:56;;;;;;;;;;;4.50;93.80;;;;;;5083161;28;20443;-60
2022/01/17 00:30:22;;;;;;;;;;;4.50;93.80;;;;;;5091641;28;20390;-60
2022/01/17 00:32:47;;;;;;;;;;;4.50;93.80;;;;;;5082488;28;19908;-60
2022/01/17 00:35:13;;;;;;;;;;;4.50;93.80;;;;;;5088762;28;19912;-60
2022/01/17 00:37:38;;;;;;;;;;;4.50;93.80;;;;;;5090579;28;20423;-59
2022/01/17 00:40:04;;;;;;;;;;;4.50;93.80;;;;;;5084225;28;19916;-60
2022/01/17 00:42:29;;;;;;;;;;;4.50;93.80;;;;;;5090112;28;20639;-60
2022/01/17 00:44:55;;;;;;;;;;;4.50;93.80;;;;;;5068744;28;19934;-62
2022/01/17 00:47:20;;;;;;;;;;;4.50;93.70;;;;;;5077468;28;19908;-60
2022/01/17 00:49:45;;;;;;;;;;;4.50;93.80;;;;;;5090655;28;19927;-60
2022/01/17 00:52:11;;;;;;;;;;;4.50;93.70;;;;;;5083629;28;19964;-59
2022/01/17 00:54:36;;;;;;;;;;;4.50;93.70;;;;;;5073868;28;20011;-60
2022/01/17 00:57:02;;;;;;;;;;;4.50;93.70;;;;;;5088895;28;19916;-60
2022/01/17 00:59:28;;;;;;;;;;;4.50;93.70;;;;;;5075460;28;20317;-60
2022/01/17 01:01:54;;;;;;;;;;;4.50;93.70;;;;;;5071939;28;19926;-60
2022/01/17 01:04:19;;;;;;;;;;;4.50;93.70;;;;;;5081156;28;19924;-63
2022/01/17 01:06:44;;;;;;;;;;;4.60;93.70;;;;;;5083034;28;19965;-60
2022/01/17 01:09:10;;;;;;;;;;;4.50;93.70;;;;;;5070791;28;19915;-60
2022/01/17 01:11:35;;;;;;;;;;;4.50;93.70;;;;;;5071964;28;19918;-60
2022/01/17 01:14:01;;;;;;;;;;;4.60;93.70;;;;;;5084308;28;19908;-60
2022/01/17 01:16:33;;;;;;;;;;;4.50;93.70;;;;;;5058590;28;19908;-60
2022/01/17 01:27:39;;;;;;;;;;;4.50;93.70;;;;;;5080082;28;19946;-60
2022/01/17 01:29:55;;;;;;;;;;;4.60;93.70;;;;;;5061006;28;19929;-60
2022/01/17 01:32:24;;;;;;;;;;;4.50;93.70;;;;;;5080124;28;19923;-60
2022/01/17 01:34:53;;;;;;;;;;;4.50;93.70;;;;;;5096936;28;19916;-60
2022/01/17 01:37:18;;;;;;;;;;;4.50;93.70;;;;;;5091862;28;20002;-60
2022/01/17 01:39:46;;;;;;;;;;;4.60;93.70;;;;;;5091613;28;20010;-60
2022/01/17 01:42:15;;;;;;;;;;;4.50;93.70;;;;;;5062157;28;19912;-60
2022/01/17 01:44:40;;;;;;;;;;;4.60;93.70;;;;;;5078644;28;19922;-60
2022/01/17 01:47:06;;;;;;;;;;;4.60;93.70;;;;;;5080014;28;19908;-60
2022/01/17 01:49:31;;;;;;;;;;;4.60;93.70;;;;;;5069058;28;19923;-60
2022/01/17 01:51:57;;;;;;;;;;;4.60;93.70;;;;;;5071518;28;19908;-60
2022/01/17 01:54:22;;;;;;;;;;;4.60;93.70;;;;;;5086605;28;19924;-60
2022/01/17 01:56:48;;;;;;;;;;;4.60;94.00;;;;;;5072044;28;19920;-60
2022/01/17 01:59:14;;;;;;;;;;;4.60;94.00;;;;;;5067163;28;20367;-60
2022/01/17 02:01:39;;;;;;;;;;;4.60;94.00;;;;;;5071451;28;19932;-60
2022/01/17 02:04:04;;;;;;;;;;;4.90;94.00;;;;;;5071428;28;20387;-60
2022/01/17 02:06:32;;;;;;;;;;;4.60;93.90;;;;;;5069042;28;19912;-60
2022/01/17 02:08:58;;;;;;;;;;;4.60;93.90;;;;;;5071927;28;20255;-60
2022/01/17 02:11:23;;;;;;;;;;;4.60;93.90;;;;;;5062081;28;19966;-60
2022/01/17 02:13:50;;;;;;;;;;;4.60;94.00;;;;;;5071471;28;20439;-60
2022/01/17 02:16:16;;;;;;;;;;;4.60;94.00;;;;;;5089941;28;19911;-59
2022/01/17 02:18:42;;;;;;;;;;;4.60;94.10;;;;;;5084692;28;20329;-60
2022/01/17 02:21:18;;;;;;;;;;;4.60;94.00;;;;;;5069113;28;19920;-60
2022/01/17 02:23:45;;;;;;;;;;;4.60;94.00;;;;;;5106881;28;19911;-60
2022/01/17 02:26:10;;;;;;;;;;;4.60;94.00;;;;;;5064422;28;19945;-60
2022/01/17 02:28:36;;;;;;;;;;;4.60;94.10;;;;;;5085488;28;19915;-60
2022/01/17 02:31:05;;;;;;;;;;;4.70;94.10;;;;;;5064154;28;20390;-59
2022/01/17 02:33:31;;;;;;;;;;;4.60;94.00;;;;;;5065087;28;20383;-59
2022/01/17 02:35:56;;;;;;;;;;;4.60;94.10;;;;;;5104089;28;19943;-60
2022/01/17 02:38:22;;;;;;;;;;;4.60;94.10;;;;;;5072793;28;19972;-60
2022/01/17 02:40:49;;;;;;;;;;;4.60;94.00;;;;;;5068425;28;19915;-60
2022/01/17 02:43:17;;;;;;;;;;;4.60;94.00;;;;;;5062259;28;19912;-60
2022/01/17 02:48:17;;;;;;;;;;;4.60;94.00;;;;;;5085273;28;19914;-60
2022/01/17 02:50:43;;;;;;;;;;;4.60;94.00;;;;;;5068753;28;19920;-60
2022/01/17 02:53:09;;;;;;;;;;;4.70;94.00;;;;;;5072222;28;19919;-60
2022/01/17 02:55:34;;;;;;;;;;;4.60;94.00;;;;;;5092458;28;20355;-60
2022/01/17 02:58:00;;;;;;;;;;;4.60;94.00;;;;;;5083750;28;19990;-60
2022/01/17 03:00:25;;;;;;;;;;;4.60;94.00;;;;;;5087628;28;20086;-60
2022/01/17 03:02:51;;;;;;;;;;;4.70;94.00;;;;;;5082704;28;19919;-59
2022/01/17 03:05:16;;;;;;;;;;;4.70;93.90;;;;;;5086421;28;19908;-60
2022/01/17 03:07:42;;;;;;;;;;;4.70;93.90;;;;;;5088660;28;20237;-60
2022/01/17 03:10:15;;;;;;;;;;;4.70;94.00;;;;;;5079040;28;19923;-60
2022/01/17 03:12:41;;;;;;;;;;;4.70;94.00;;;;;;5090891;28;20386;-60
2022/01/17 03:15:07;;;;;;;;;;;4.70;94.00;;;;;;5065788;28;19919;-60
2022/01/17 03:17:32;;;;;;;;;;;4.70;93.90;;;;;;5071673;28;20279;-59
2022/01/17 03:19:58;;;;;;;;;;;4.70;94.00;;;;;;5091961;28;19974;-59
2022/01/17 03:22:23;;;;;;;;;;;4.60;93.90;;;;;;5086442;28;19943;-60
2022/01/17 03:24:48;;;;;;;;;;;4.70;93.90;;;;;;5068219;28;19908;-60
2022/01/17 03:27:14;;;;;;;;;;;4.70;93.90;;;;;;5082996;28;19918;-60
2022/01/17 03:29:39;;;;;;;;;;;4.70;93.90;;;;;;5081543;28;20011;-60
2022/01/17 03:32:05;;;;;;;;;;;4.70;93.90;;;;;;5086189;28;20386;-60
2022/01/17 03:34:30;;;;;;;;;;;4.70;93.90;;;;;;5082883;28;19916;-60
2022/01/17 03:36:56;;;;;;;;;;;4.70;93.80;;;;;;5086757;28;19912;-60
2022/01/17 03:39:21;;;;;;;;;;;4.70;93.90;;;;;;5078320;28;19970;-60
2022/01/17 03:41:47;;;;;;;;;;;4.70;93.90;;;;;;5067069;28;19966;-60
2022/01/17 03:44:12;;;;;;;;;;;4.70;93.80;;;;;;5081625;28;19919;-60
2022/01/17 03:46:38;;;;;;;;;;;4.70;93.80;;;;;;5082314;28;19916;-60
2022/01/17 03:49:04;;;;;;;;;;;4.70;93.90;;;;;;5070817;28;20046;-60
2022/01/17 03:51:29;;;;;;;;;;;4.70;93.90;;;;;;5080108;28;20580;-59
2022/01/17 03:53:55;;;;;;;;;;;4.70;93.90;;;;;;5080498;28;19908;-60
2022/01/17 03:56:20;;;;;;;;;;;4.70;93.90;;;;;;5070851;28;20391;-60
2022/01/17 03:58:46;;;;;;;;;;;4.70;93.80;;;;;;5068096;28;19909;-60
2022/01/17 04:01:12;;;;;;;;;;;4.70;93.80;;;;;;5076053;28;19951;-60
2022/01/17 04:03:38;;;;;;;;;;;4.70;93.80;;;;;;5089606;28;19909;-60
2022/01/17 04:06:03;;;;;;;;;;;4.70;93.80;;;;;;5078683;28;20324;-60
2022/01/17 04:08:29;;;;;;;;;;;4.70;93.80;;;;;;5065658;28;19912;-59
2022/01/17 04:10:54;;;;;;;;;;;4.70;93.80;;;;;;5084406;28;19922;-60
2022/01/17 04:13:20;;;;;;;;;;;4.70;93.80;;;;;;5089938;28;19916;-59
2022/01/17 04:15:46;;;;;;;;;;;4.80;93.80;;;;;;5061741;28;20278;-59
2022/01/17 04:18:11;;;;;;;;;;;4.70;93.80;;;;;;5068186;28;19957;-59
2022/01/17 04:20:37;;;;;;;;;;;4.80;93.80;;;;;;5074346;28;19911;-60
2022/01/17 04:23:03;;;;;;;;;;;4.70;93.70;;;;;;5093832;28;20070;-59
2022/01/17 04:25:29;;;;;;;;;;;4.70;93.70;;;;;;5072421;28;20006;-59
2022/01/17 04:27:55;;;;;;;;;;;4.70;93.70;;;;;;5110724;28;20375;-62
2022/01/17 04:30:20;;;;;;;;;;;4.70;93.70;;;;;;5088089;28;19930;-60
2022/01/17 04:32:46;;;;;;;;;;;4.70;93.70;;;;;;5089313;27;19935;-60
2022/01/17 04:35:12;;;;;;;;;;;4.70;93.70;;;;;;5070776;28;19923;-63
2022/01/17 04:37:37;;;;;;;;;;;4.70;93.70;;;;;;5075960;28;19996;-60
2022/01/17 04:40:03;;;;;;;;;;;4.70;94.00;;;;;;5072239;28;19923;-59
2022/01/17 04:42:29;;;;;;;;;;;4.80;93.90;;;;;;5073298;28;20420;-62
2022/01/17 04:45:07;;;;;;;;;;;4.80;93.80;;;;;;5071025;28;19919;-60
2022/01/17 04:47:32;;;;;;;;;;;4.80;93.70;;;;;;5089523;28;19908;-60
2022/01/17 04:49:58;;;;;;;;;;;4.80;93.70;;;;;;5071068;28;20398;-59
2022/01/17 04:52:24;;;;;;;;;;;4.80;93.70;;;;;;5085713;28;19919;-59
2022/01/17 04:54:54;;;;;;;;;;;4.80;93.70;;;;;;5065075;28;20279;-60
2022/01/17 04:57:21;;;;;;;;;;;4.80;93.70;;;;;;5087600;28;20404;-60
2022/01/17 04:59:46;;;;;;;;;;;4.80;93.70;;;;;;5065374;28;20063;-60
2022/01/17 05:02:12;;;;;;;;;;;4.80;93.70;;;;;;5107556;28;19920;-60
2022/01/17 05:04:37;;;;;;;;;;;4.80;93.70;;;;;;5111530;28;19920;-61
2022/01/17 05:07:03;;;;;;;;;;;4.80;93.70;;;;;;5086977;28;20282;-60
2022/01/17 05:09:28;;;;;;;;;;;4.80;93.70;;;;;;5065418;28;19988;-60
2022/01/17 05:11:54;;;;;;;;;;;4.80;93.80;;;;;;5072772;28;19948;-60
2022/01/17 05:14:19;;;;;;;;;;;4.80;93.80;;;;;;5067039;28;19920;-59
2022/01/17 05:16:50;;;;;;;;;;;4.80;93.80;;;;;;5074943;28;20378;-59
2022/01/17 05:22:00;;;;;;;;;;;4.80;93.80;;;;;;5090695;28;19918;-59
2022/01/17 05:24:25;;;;;;;;;;;4.80;93.80;;;;;;5082787;28;19912;-60
2022/01/17 05:26:51;;;;;;;;;;;4.80;93.80;;;;;;5088345;28;19912;-59
2022/01/17 05:29:16;;;;;;;;;;;4.80;93.80;;;;;;5085332;28;20059;-60
2022/01/17 05:31:42;;;;;;;;;;;4.80;93.80;;;;;;5087487;28;20298;-60
2022/01/17 05:34:07;;;;;;;;;;;4.80;93.80;;;;;;5090301;28;19965;-59
2022/01/17 05:36:33;;;;;;;;;;;4.80;93.80;;;;;;5082660;28;20250;-60
2022/01/17 05:38:58;;;;;;;;;;;4.90;93.90;;;;;;5068442;28;20267;-60
2022/01/17 05:41:23;;;;;;;;;;;4.80;93.80;;;;;;5071564;28;19955;-59
2022/01/17 05:43:49;;;;;;;;;;;4.80;93.80;;;;;;5086109;28;19919;-60
2022/01/17 05:46:14;;;;;;;;;;;4.90;93.80;;;;;;5073151;28;19918;-60
2022/01/17 05:48:40;;;;;;;;;;;4.80;93.80;;;;;;5089656;28;19911;-60
2022/01/17 05:51:05;;;;;;;;;;;4.80;93.80;;;;;;5080863;28;20294;-60
2022/01/17 05:53:31;;;;;;;;;;;4.80;93.70;;;;;;5074010;28;20081;-60
2022/01/17 05:55:56;;;;;;;;;;;4.80;93.80;;;;;;5078522;28;19973;-59
2022/01/17 05:58:22;;;;;;;;;;;4.80;93.80;;;;;;5062289;28;19919;-60
2022/01/17 06:00:47;;;;;;;;;;;4.90;93.80;;;;;;5062657;28;20774;-60
2022/01/17 06:03:13;;;;;;;;;;;4.80;93.70;;;;;;5067076;28;20426;-59
2022/01/17 06:05:38;;;;;;;;;;;4.80;93.80;;;;;;5089259;28;20049;-59
2022/01/17 06:08:03;;;;;;;;;;;4.80;93.80;;;;;;5069620;28;19919;-59
2022/01/17 06:10:29;;;;;;;;;;;4.80;93.80;;;;;;5089737;28;19911;-60
2022/01/17 06:12:55;;;;;;;;;;;4.80;93.80;;;;;;5091047;28;19908;-59
2022/01/17 06:15:21;;;;;;;;;;;4.90;93.80;;;;;;5086973;28;19930;-60
2022/01/17 06:17:46;;;;;;;;;;;4.90;93.80;;;;;;5072351;28;19990;-58
2022/01/17 06:20:12;;;;;;;;;;;4.90;93.80;;;;;;5071353;28;20363;-59
2022/01/17 06:22:37;;;;;;;;;;;4.90;93.70;;;;;;5068118;28;19935;-58
2022/01/17 06:25:03;;;;;;;;;;;4.90;93.70;;;;;;5067765;28;20369;-59
2022/01/17 06:27:28;;;;;;;;;;;4.90;94.00;;;;;;5066934;28;19912;-59
2022/01/17 06:29:54;;;;;;;;;;;4.90;93.70;;;;;;5084691;28;19920;-59
2022/01/17 06:32:19;;;;;;;;;;;4.90;93.70;;;;;;5089878;28;20139;-59
2022/01/17 06:34:45;;;;;;;;;;;4.90;93.80;;;;;;5069906;28;19912;-59
2022/01/17 06:37:10;;;;;;;;;;;4.90;93.80;;;;;;5101369;28;19927;-58
2022/01/17 06:39:36;;;;;;;;;;;4.90;93.80;;;;;;5067463;28;20373;-58
2022/01/17 06:42:01;;;;;;;;;;;4.90;93.70;;;;;;5082575;28;19908;-59
2022/01/17 06:44:26;;;;;;;;;;;4.90;93.70;;;;;;5075599;28;19968;-59
2022/01/17 06:46:52;;;;;;;;;;;4.80;93.70;;;;;;5075326;28;20226;-59
2022/01/17 06:49:17;;;;;;;;;;;4.80;93.70;;;;;;5082270;28;19919;-58
2022/01/17 06:51:43;;;;;;;;;;;4.80;93.70;;;;;;5061023;28;19912;-59
2022/01/17 06:54:08;;;;;;;;;;;4.90;93.70;;;;;;5068971;28;20062;-58
2022/01/17 06:56:34;;;;;;;;;;;4.80;93.70;;;;;;5081428;28;19920;-59
2022/01/17 06:58:59;;;;;;;;;;;4.80;93.70;;;;;;5085019;28;20347;-58
2022/01/17 07:01:25;;;;;;;;;;;4.80;93.70;;;;;;5074804;28;19921;-58
2022/01/17 07:03:50;;;;;;;;;;;4.80;93.70;;;;;;5078558;28;19920;-59
2022/01/17 07:06:16;;;;;;;;;;;4.80;93.70;;;;;;5084103;28;19912;-61
2022/01/17 07:08:41;;;;;;;;;;;4.80;93.80;;;;;;5075335;28;19928;-61
2022/01/17 07:11:07;;;;;;;;;;;4.80;93.90;;;;;;5058534;28;20360;-61
2022/01/17 07:13:32;;;;;;;;;;;4.80;93.90;;;;;;5057952;28;20380;-61
2022/01/17 07:15:58;;;;;;;;;;;4.80;94.00;;;;;;5074642;28;19908;-61
2022/01/17 07:18:23;;;;;;;;;;;4.90;94.00;;;;;;5074277;28;19912;-61
2022/01/17 07:20:48;;;;;;;;;;;4.70;94.00;;;;;;5065928;28;20313;-61
2022/01/17 07:23:14;;;;;;;;;;;4.80;94.00;;;;;;5076783;28;19908;-61
2022/01/17 07:25:40;;;;;;;;;;;4.80;94.00;;;;;;5095735;28;19916;-61
2022/01/17 07:28:07;;;;;;;;;;;4.80;94.00;;;;;;5088344;28;20410;-61
2022/01/17 07:30:32;;;;;;;;;;;4.80;94.00;;;;;;5087890;28;19978;-61
2022/01/17 07:32:57;;;;;;;;;;;4.80;94.00;;;;;;5068575;28;19916;-61
2022/01/17 07:35:23;;;;;;;;;;;4.80;94.00;;;;;;5081145;28;19923;-61
2022/01/17 07:37:51;;;;;;;;;;;4.70;94.00;;;;;;5063236;28;19919;-61
2022/01/17 07:40:17;;;;;;;;;;;4.80;94.10;;;;;;5078182;28;19911;-61
2022/01/17 07:42:42;;;;;;;;;;;4.80;94.00;;;;;;5072099;28;20467;-61
2022/01/17 07:45:14;;;;;;;;;;;4.70;94.00;;;;;;5085673;28;19935;-61
2022/01/17 07:50:10;;;;;;;;;;;4.70;94.00;;;;;;5079896;28;19952;-61
2022/01/17 07:52:36;;;;;;;;;;;4.80;94.00;;;;;;5069361;28;19912;-61
2022/01/17 07:55:01;;;;;;;;;;;4.70;94.00;;;;;;5069410;28;19913;-61
2022/01/17 07:57:27;;;;;;;;;;;4.80;94.10;;;;;;5078254;28;19947;-61
2022/01/17 07:59:52;;;;;;;;;;;4.70;94.00;;;;;;5074454;28;20009;-61
2022/01/17 08:02:18;;;;;;;;;;;4.80;94.10;;;;;;5066265;28;20390;-61
2022/01/17 08:04:43;;;;;;;;;;;4.80;94.00;;;;;;5072151;28;19922;-61
2022/01/17 08:07:09;;;;;;;;;;;4.70;94.10;;;;;;5091581;27;19976;-61
2022/01/17 08:09:34;;;;;;;;;;;4.70;94.10;;;;;;5059191;28;20470;-61
2022/01/17 08:12:00;;;;;;;;;;;4.70;94.20;;;;;;5078513;28;20025;-61
2022/01/17 08:14:26;;;;;;;;;;;4.70;94.20;;;;;;5077040;28;19923;-61
2022/01/17 08:16:51;;;;;;;;;;;4.80;94.20;;;;;;5062305;28;19913;-61
2022/01/17 08:19:17;;;;;;;;;;;4.80;94.20;;;;;;5065942;28;20255;-58
2022/01/17 08:21:42;;;;;;;;;;;4.80;94.20;;;;;;5079735;28;20061;-58
2022/01/17 08:24:08;;;;;;;;;;;4.70;94.20;;;;;;5063531;28;20003;-58
2022/01/17 08:26:33;;;;;;;;;;;4.70;94.20;;;;;;5079878;28;19916;-59
2022/01/17 08:28:59;;;;;;;;;;;4.80;94.30;;;;;;5060238;28;20009;-59
2022/01/17 08:31:24;;;;;;;;;;;4.80;94.20;;;;;;5037052;28;19921;-58
2022/01/17 08:33:50;;;;;;;;;;;4.80;94.20;;;;;;5038262;28;19993;-59
2022/01/17 08:36:19;;;;;;;;;;;4.70;94.20;;;;;;5054380;28;19931;-59
2022/01/17 08:38:45;;;;;;;;;;;4.80;94.20;;;;;;5049781;28;19997;-59
2022/01/17 08:41:10;;;;;;;;;;;4.80;94.20;;;;;;5042199;28;20024;-58
2022/01/17 08:43:36;;;;;;;;;;;4.80;94.20;;;;;;5036107;28;19929;-59
2022/01/17 08:46:03;;;;;;;;;;;4.80;94.20;;;;;;5035657;28;20262;-61
2022/01/17 08:48:28;;;;;;;;;;;4.80;94.10;;;;;;5054021;28;19927;-61
2022/01/17 08:50:54;;;;;;;;;;;4.80;94.30;;;;;;5076734;28;20335;-61
2022/01/17 08:53:19;;;;;;;;;;;4.80;94.30;;;;;;5051090;28;19927;-61
2022/01/17 08:55:45;;;;;;;;;;;4.80;94.30;;;;;;5055529;28;19935;-61
2022/01/17 08:58:11;;;;;;;;;;;4.80;94.30;;;;;;5074479;27;20568;-61
2022/01/17 09:00:36;;;;;;;;;;;4.80;94.30;;;;;;5066752;28;19970;-61
2022/01/17 09:03:02;;;;;;;;;;;4.80;94.30;;;;;;5036274;28;21187;-62
2022/01/17 09:05:28;;;;;;;;;;;4.80;94.30;;;;;;5022162;28;20911;-62
2022/01/17 09:07:53;;;;;;;;;;;4.90;94.30;;;;;;5018436;28;21728;-61
2022/01/17 09:10:19;;;;;;;;;;;4.90;94.40;;;;;;5022211;28;20626;-61
2022/01/17 09:12:44;;;;;;;;;;;4.90;94.40;;;;;;5025643;28;20057;-58
2022/01/17 09:15:10;;;;;;;;;;;4.90;94.40;;;;;;5030623;28;19920;-58
2022/01/17 09:17:36;;;;;;;;;;;4.90;94.30;;;;;;5026059;28;19924;-58
2022/01/17 09:20:02;;;;;;;;;;;4.90;94.40;;;;;;5032675;28;20064;-59
2022/01/17 09:22:29;;;;;;;;;;;4.90;94.40;;;;;;5024265;28;20007;-59
2022/01/17 09:24:54;;;;;;;;;;;4.90;94.40;;;;;;5018832;28;19920;-59
2022/01/17 09:27:20;;;;;;;;;;;4.90;94.40;;;;;;5028986;28;19921;-59
2022/01/17 09:29:45;;;;;;;;;;;5.00;94.40;;;;;;5016306;28;19925;-59
2022/01/17 09:32:11;;;;;;;;;;;5.00;94.40;;;;;;5032558;28;20005;-59
2022/01/17 09:34:36;;;;;;;;;;;5.00;94.40;;;;;;5037401;28;20008;-59
2022/01/17 09:37:02;;;;;;;;;;;5.00;94.40;;;;;;5018016;28;19924;-58
2022/01/17 09:39:27;;;;;;;;;;;5.10;94.40;;;;;;5019090;28;19925;-59
2022/01/17 09:41:53;;;;;;;;;;;5.10;94.50;;;;;;5055131;28;19927;-61
2022/01/17 09:44:18;;;;;;;;;;;5.10;94.50;;;;;;5037449;28;19923;-59
2022/01/17 09:46:47;;;;;;;;;;;5.10;94.40;;;;;;5056016;28;20575;-59
2022/01/17 09:49:56;;;;;;;;;;;5.10;94.70;;;;;;5043402;28;19919;-61
2022/01/17 09:52:07;;;;;;;;;;;5.10;94.40;;;;;;5051097;28;19921;-61
2022/01/17 09:54:35;;;;;;;;;;;5.20;94.60;;;;;;5056881;28;19992;-61
2022/01/17 09:57:06;;;;;;;;;;;5.20;94.60;;;;;;5043161;28;19928;-61
2022/01/17 09:59:31;;;;;;;;;;;5.20;94.70;;;;;;5048957;28;20454;-61
2022/01/17 10:01:57;;;;;;;;;;;5.20;94.70;;;;;;5049429;28;20023;-61
2022/01/17 10:04:22;;;;;;;;;;;5.30;94.80;;;;;;5061092;28;19916;-61
2022/01/17 10:06:51;;;;;;;;;;;5.30;94.70;;;;;;5076267;28;19919;-61
2022/01/17 10:09:21;;;;;;;;;;;5.30;94.70;;;;;;5061843;28;19923;-61
2022/01/17 10:12:02;;;;;;;;;;;5.30;94.70;;;;;;5076614;28;20059;-61
2022/01/17 10:14:29;;;;;;;;;;;5.30;94.70;;;;;;5074694;28;19916;-61
2022/01/17 10:16:55;;;;;;;;;;;5.30;94.70;;;;;;5072709;28;19912;-61
2022/01/17 10:19:25;;;;;;;;;;;5.40;94.80;;;;;;5078041;28;20307;-61
2022/01/17 10:21:54;;;;;;;;;;;5.40;94.70;;;;;;5077612;28;20367;-61
2022/01/17 10:35:11;;;;;;;;;;;5.50;94.70;;;;;;5075490;28;19934;-61
2022/01/17 10:37:36;;;;;;;;;;;5.50;94.70;;;;;;5054682;28;19920;-61
2022/01/17 10:40:06;;;;;;;;;;;5.50;94.80;;;;;;5061063;28;19936;-61
2022/01/17 10:42:34;;;;;;;;;;;5.50;94.80;;;;;;5027128;28;19920;-61
2022/01/17 10:45:03;;;;;;;;;;;5.60;94.80;;;;;;5035852;28;19920;-61
2022/01/17 10:47:28;;;;;;;;;;;5.60;94.80;;;;;;5046605;28;19921;-59
2022/01/17 10:49:55;;;;;;;;;;;5.60;94.80;;;;;;5044675;28;20009;-59
2022/01/17 10:52:27;;;;;;;;;;;5.60;94.80;;;;;;5041807;28;20315;-61
2022/01/17 10:54:57;;;;;;;;;;;5.70;94.80;;;;;;5068011;28;19928;-61
2022/01/17 10:57:22;;;;;;;;;;;5.70;94.70;;;;;;5055664;28;20029;-61
2022/01/17 10:59:51;;;;;;;;;;;5.70;94.70;;;;;;5043109;28;19932;-61
2022/01/17 11:02:17;;;;;;;;;;;5.80;94.80;;;;;;5063213;28;20392;-61
2022/01/17 11:04:42;;;;;;;;;;;5.80;94.80;;;;;;5025620;28;19927;-61
2022/01/17 11:07:08;;;;;;;;;;;5.80;94.70;;;;;;5047267;28;20455;-61
2022/01/17 11:09:39;;;;;;;;;;;5.90;94.70;;;;;;5058722;28;19924;-61
2022/01/17 11:12:09;;;;;;;;;;;5.90;94.60;;;;;;5043984;28;20237;-61
2022/01/17 11:14:40;;;;;;;;;;;5.90;94.50;;;;;;5071684;28;19943;-61
2022/01/17 11:17:15;;;;;;;;;;;5.90;94.60;;;;;;5066115;28;20023;-61
2022/01/17 11:22:25;;;;;;;;;;;6.00;94.40;;;;;;5074277;28;20061;-61
2022/01/17 11:24:51;;;;;;;;;;;6.00;94.20;;;;;;5077452;28;19913;-61
2022/01/17 11:27:16;;;;;;;;;;;6.00;94.20;;;;;;5083031;28;19939;-61
2022/01/17 11:29:42;;;;;;;;;;;6.10;94.30;;;;;;5065436;28;19933;-61
2022/01/17 11:32:07;;;;;;;;;;;6.10;94.20;;;;;;5066435;28;19917;-61
2022/01/17 11:34:33;;;;;;;;;;;6.10;94.10;;;;;;5064436;28;19924;-61
2022/01/17 11:36:59;;;;;;;;;;;6.20;94.00;;;;;;5078302;28;20319;-61
2022/01/17 11:39:25;;;;;;;;;;;6.20;93.90;;;;;;5075485;28;20008;-61
2022/01/17 11:41:50;;;;;;;;;;;6.20;93.90;;;;;;5080727;28;19928;-61
2022/01/17 11:44:16;;;;;;;;;;;6.20;94.00;;;;;;5071845;28;19913;-61
2022/01/17 11:46:45;;;;;;;;;;;6.20;93.90;;;;;;5077479;28;19927;-61
2022/01/17 11:49:11;;;;;;;;;;;6.30;94.00;;;;;;5084216;28;19947;-60
2022/01/17 11:51:40;;;;;;;;;;;6.30;93.90;;;;;;5067942;28;19931;-61
2022/01/17 11:54:25;;;;;;;;;;;6.30;93.90;;;;;;5072528;28;19946;-61
2022/01/17 11:56:52;;;;;;;;;;;6.40;93.70;;;;;;5084498;28;19916;-61
2022/01/17 11:59:31;;;;;;;;;;;6.10;93.60;;;;;;5065743;28;20507;-60
2022/01/17 12:02:27;;;;;;;;;;;6.40;93.80;;;;;;5092071;27;19924;-60
2022/01/17 12:05:08;;;;;;;;;;;6.40;93.80;;;;;;5065364;28;19920;-60
2022/01/17 12:07:37;;;;;;;;;;;6.50;94.10;;;;;;5080714;28;19971;-60
2022/01/17 12:10:09;;;;;;;;;;;6.50;94.10;;;;;;5085910;28;19916;-61
2022/01/17 12:12:35;;;;;;;;;;;6.50;93.90;;;;;;5076452;28;20417;-61
2022/01/17 12:15:05;;;;;;;;;;;6.50;94.00;;;;;;5061867;28;19924;-60
2022/01/17 12:17:31;;;;;;;;;;;6.50;94.00;;;;;;5080096;28;19916;-60
2022/01/17 12:20:03;;;;;;;;;;;6.50;93.90;;;;;;5090798;28;20307;-62
2022/01/17 12:22:52;;;;;;;;;;;6.60;93.80;;;;;;5096874;27;19958;-60
2022/01/17 12:25:30;;;;;;;;;;;6.60;93.80;;;;;;5076958;28;20509;-61
2022/01/17 12:28:04;;;;;;;;;;;6.60;93.90;;;;;;5077520;28;20314;-61
2022/01/17 12:30:40;;;;;;;;;;;6.60;93.90;;;;;;5087973;28;19924;-60
2022/01/17 12:33:06;;;;;;;;;;;6.60;93.80;;;;;;5068912;28;19912;-60
2022/01/17 12:35:33;;;;;;;;;;;6.60;93.80;;;;;;5076873;28;19940;-61
2022/01/17 12:38:06;;;;;;;;;;;6.60;93.70;;;;;;5082234;28;19947;-61
2022/01/17 12:40:39;;;;;;;;;;;6.60;93.70;;;;;;5068030;28;20078;-60
2022/01/17 12:43:05;;;;;;;;;;;6.60;93.60;;;;;;5085163;28;19912;-60
2022/01/17 12:45:35;;;;;;;;;;;6.60;93.60;;;;;;5078451;28;20347;-60
2022/01/17 12:48:01;;;;;;;;;;;6.60;93.60;;;;;;5064803;28;20029;-61
2022/01/17 12:50:27;;;;;;;;;;;6.60;93.50;;;;;;5073631;28;19924;-61
2022/01/17 12:52:54;;;;;;;;;;;6.60;93.50;;;;;;5079440;28;19932;-61
2022/01/17 12:55:19;;;;;;;;;;;6.70;93.40;;;;;;5073940;28;19956;-61
2022/01/17 12:57:45;;;;;;;;;;;6.70;93.40;;;;;;5053545;28;20027;-61
2022/01/17 13:00:16;;;;;;;;;;;6.70;93.40;;;;;;5052106;28;19931;-61
2022/01/17 13:02:42;;;;;;;;;;;6.70;93.30;;;;;;5050029;28;20043;-60
2022/01/17 13:05:08;;;;;;;;;;;6.70;93.30;;;;;;5038685;28;19934;-61
2022/01/17 13:07:33;;;;;;;;;;;6.70;93.30;;;;;;5075201;28;21419;-61
2022/01/17 13:09:59;;;;;;;;;;;6.90;93.30;;;;;;5058415;28;19988;-61
2022/01/17 13:12:24;;;;;;;;;;;6.80;93.30;;;;;;5047848;28;20414;-61
2022/01/17 13:14:55;;;;;;;;;;;6.80;93.30;;;;;;5036455;28;20000;-60
2022/01/17 13:17:20;;;;;;;;;;;6.80;93.10;;;;;;5047278;28;20359;-61
2022/01/17 13:19:46;;;;;;;;;;;6.80;93.20;;;;;;5037121;28;19942;-61
2022/01/17 13:22:11;;;;;;;;;;;6.80;93.20;;;;;;5030553;28;20273;-61
2022/01/17 13:24:37;;;;;;;;;;;6.90;93.10;;;;;;5030861;28;20003;-61
2022/01/17 13:27:06;;;;;;;;;;;6.90;93.10;;;;;;5055270;28;19981;-60
2022/01/17 13:29:36;;;;;;;;;;;6.90;93.10;;;;;;5052607;28;21465;-60
2022/01/17 13:32:03;;;;;;;;;;;6.90;93.10;;;;;;5067879;28;20561;-61
2022/01/17 13:34:29;;;;;;;;;;;6.90;93.10;;;;;;5072306;28;19912;-60
2022/01/17 13:36:55;;;;;;;;;;;6.90;93.00;;;;;;5032694;28;19936;-60
2022/01/17 13:39:22;;;;;;;;;;;6.90;93.00;;;;;;5046067;28;20009;-60
2022/01/17 13:41:50;;;;;;;;;;;7.00;93.00;;;;;;5037844;28;19928;-60
2022/01/17 13:44:22;;;;;;;;;;;7.00;93.00;;;;;;5046937;28;20228;-60
2022/01/17 13:47:05;;;;;;;;;;;7.00;93.00;;;;;;5030761;28;20452;-61
2022/01/17 13:49:31;;;;;;;;;;;7.00;93.00;;;;;;5048940;28;20034;-61
2022/01/17 13:51:57;;;;;;;;;;;7.00;93.00;;;;;;5049270;28;20011;-61
2022/01/17 13:54:23;;;;;;;;;;;6.80;92.90;;;;;;5030945;28;19951;-60
2022/01/17 13:56:49;;;;;;;;;;;7.00;92.90;;;;;;5043227;28;21113;-61
2022/01/17 13:59:16;;;;;;;;;;;7.10;92.90;;;;;;5039641;28;20001;-61
2022/01/17 14:01:42;;;;;;;;;;;7.10;92.90;;;;;;5046922;28;19997;-61
2022/01/17 14:04:21;;;;;;;;;;;7.10;92.90;;;;;;5044043;28;19968;-61
2022/01/17 14:06:47;;;;;;;;;;;7.10;92.90;;;;;;5054422;28;20012;-60
2022/01/17 14:09:12;;;;;;;;;;;7.10;93.10;;;;;;5063738;28;20485;-61
2022/01/17 14:11:41;;;;;;;;;;;7.10;92.80;;;;;;5051946;28;19927;-60
2022/01/17 14:14:07;;;;;;;;;;;7.10;92.80;;;;;;5068368;28;19920;-61
2022/01/17 14:16:32;;;;;;;;;;;7.10;92.80;;;;;;5050624;28;19931;-60
2022/01/17 14:19:03;;;;;;;;;;;7.20;92.80;;;;;;5051815;28;19920;-61
2022/01/17 14:21:42;;;;;;;;;;;7.20;92.70;;;;;;5075780;28;19959;-60
2022/01/17 14:24:07;;;;;;;;;;;7.10;92.60;;;;;;5081261;28;19938;-60
2022/01/17 14:26:33;;;;;;;;;;;7.20;92.60;;;;;;5080749;28;19920;-61
2022/01/17 14:28:58;;;;;;;;;;;7.20;92.60;;;;;;5084155;28;19919;-60
2022/01/17 14:31:24;;;;;;;;;;;7.20;92.60;;;;;;5083724;28;20416;-61
2022/01/17 14:33:51;;;;;;;;;;;7.20;92.70;;;;;;5075535;28;19916;-60
2022/01/17 14:36:18;;;;;;;;;;;7.10;92.60;;;;;;5078649;28;20249;-61
2022/01/17 14:38:50;;;;;;;;;;;7.20;92.60;;;;;;5080841;28;19974;-61
2022/01/17 14:41:17;;;;;;;;;;;7.20;92.50;;;;;;5077988;28;20284;-63
2022/01/17 14:43:42;;;;;;;;;;;7.20;92.50;;;;;;5074638;28;20470;-61
2022/01/17 14:46:07;;;;;;;;;;;7.10;92.50;;;;;;5074968;28;19924;-61
2022/01/17 14:48:34;;;;;;;;;;;7.20;92.50;;;;;;5071037;28;19966;-61
2022/01/17 14:51:12;;;;;;;;;;;7.20;92.50;;;;;;5078126;28;19920;-61
2022/01/17 14:53:38;;;;;;;;;;;7.20;92.50;;;;;;5074182;28;20023;-61
2022/01/17 15:01:39;;;;;;;;;;;7.20;92.30;;;;;;5097921;28;19947;-61
2022/01/17 15:04:05;;;;;;;;;;;7.10;92.30;;;;;;5081994;28;20582;-61
2022/01/17 15:06:30;;;;;;;;;;;7.10;92.30;;;;;;5102262;28;19965;-60